createdAt,value
2022-09-26T00:00:50.204Z,0.00
2022-09-26T00:01:50.241Z,0.00
2022-09-26T00:02:50.276Z,0.00
2022-09-26T00:03:50.172Z,0.00
2022-09-26T00:04:51.178Z,0.00
2022-09-26T00:05:50.189Z,0.00
2022-09-26T00:06:50.162Z,0.00
2022-09-26T00:07:50.184Z,0.00
2022-09-26T00:08:50.170Z,0.00
2022-09-26T00:09:50.164Z,0.00
2022-09-26T00:10:51.172Z,0.00
2022-09-26T00:11:50.159Z,0.00
2022-09-26T00:12:50.147Z,0.00
2022-09-26T00:13:50.149Z,0.00
2022-09-26T00:14:50.144Z,0.00
2022-09-26T00:15:50.145Z,0.00
2022-09-26T00:16:51.175Z,0.00
2022-09-26T00:17:50.153Z,0.00
2022-09-26T00:18:50.124Z,0.00
2022-09-26T00:19:50.139Z,0.00
2022-09-26T00:20:50.149Z,0.00
2022-09-26T00:21:50.135Z,0.00
2022-09-26T00:22:51.134Z,0.00
2022-09-26T00:23:50.112Z,0.00
2022-09-26T00:24:50.125Z,0.00
2022-09-26T00:25:50.113Z,0.00
2022-09-26T00:26:50.122Z,0.00
2022-09-26T00:27:50.124Z,0.00
2022-09-26T00:28:51.123Z,0.00
2022-09-26T00:29:50.114Z,0.00
2022-09-26T00:30:50.230Z,0.00
2022-09-26T00:31:50.113Z,0.00
2022-09-26T00:32:50.095Z,0.00
2022-09-26T00:33:50.088Z,0.00
2022-09-26T00:34:51.119Z,0.00
2022-09-26T00:35:50.110Z,0.00
2022-09-26T00:36:50.090Z,0.00
2022-09-26T00:37:50.095Z,0.00
2022-09-26T00:38:50.090Z,0.00
2022-09-26T00:39:50.086Z,0.00
2022-09-26T00:40:51.130Z,0.00
2022-09-26T00:41:50.076Z,0.00
2022-09-26T00:42:50.056Z,0.00
2022-09-26T00:43:50.077Z,0.00
2022-09-26T00:44:50.078Z,0.00
2022-09-26T00:45:50.136Z,0.00
2022-09-26T00:46:51.066Z,0.00
2022-09-26T00:47:50.063Z,0.00
2022-09-26T00:48:50.052Z,0.00
2022-09-26T00:49:50.051Z,0.00
2022-09-26T00:50:50.041Z,0.00
2022-09-26T00:51:50.045Z,0.00
2022-09-26T00:52:51.045Z,0.00
2022-09-26T00:53:50.040Z,0.00
2022-09-26T00:54:50.042Z,0.00
2022-09-26T00:55:50.094Z,0.00
2022-09-26T00:56:50.042Z,0.00
2022-09-26T00:57:50.025Z,0.00
2022-09-26T00:58:51.040Z,0.00
2022-09-26T00:59:50.030Z,0.00
2022-09-26T01:00:50.085Z,0.00
2022-09-26T01:01:50.118Z,0.00
2022-09-26T01:02:50.016Z,0.00
2022-09-26T01:03:50.026Z,0.00
2022-09-26T01:04:51.020Z,0.00
2022-09-26T01:05:50.003Z,0.00
2022-09-26T01:06:50.013Z,0.00
2022-09-26T01:07:49.996Z,0.00
2022-09-26T01:08:50.005Z,0.00
2022-09-26T01:09:50.007Z,0.00
2022-09-26T01:10:51.006Z,0.00
2022-09-26T01:11:50.011Z,0.00
2022-09-26T01:12:49.987Z,0.00
2022-09-26T01:13:49.989Z,0.00
2022-09-26T01:14:49.993Z,0.00
2022-09-26T01:15:49.978Z,0.00
2022-09-26T01:16:51.057Z,0.00
2022-09-26T01:17:49.997Z,0.00
2022-09-26T01:18:49.970Z,0.00
2022-09-26T01:19:49.970Z,0.00
2022-09-26T01:20:49.964Z,0.00
2022-09-26T01:21:49.978Z,0.00
2022-09-26T01:22:50.984Z,0.00
2022-09-26T01:23:49.970Z,0.00
2022-09-26T01:24:49.949Z,0.00
2022-09-26T01:25:49.956Z,0.00
2022-09-26T01:26:49.952Z,0.00
2022-09-26T01:27:49.947Z,0.00
2022-09-26T01:28:50.992Z,0.00
2022-09-26T01:29:49.961Z,0.00
2022-09-26T01:30:50.038Z,0.00
2022-09-26T01:31:49.940Z,0.00
2022-09-26T01:32:49.946Z,0.00
2022-09-26T01:33:49.928Z,0.00
2022-09-26T01:34:50.949Z,0.00
2022-09-26T01:35:49.930Z,0.00
2022-09-26T01:36:49.929Z,0.00
2022-09-26T01:37:49.929Z,0.00
2022-09-26T01:38:49.930Z,0.00
2022-09-26T01:39:49.920Z,0.00
2022-09-26T01:40:50.958Z,0.00
2022-09-26T01:41:49.920Z,0.00
2022-09-26T01:42:49.899Z,0.00
2022-09-26T01:43:49.907Z,0.00
2022-09-26T01:44:49.900Z,0.00
2022-09-26T01:45:50.086Z,0.00
2022-09-26T01:46:50.964Z,0.00
2022-09-26T01:47:49.892Z,0.00
2022-09-26T01:48:49.882Z,0.00
2022-09-26T01:49:49.885Z,0.00
2022-09-26T01:50:49.892Z,0.00
2022-09-26T01:51:49.887Z,0.00
2022-09-26T01:52:50.890Z,0.00
2022-09-26T01:53:49.922Z,0.00
2022-09-26T01:54:49.875Z,0.00
2022-09-26T01:55:49.885Z,0.00
2022-09-26T01:56:49.855Z,0.00
2022-09-26T01:57:49.869Z,0.00
2022-09-26T01:58:50.932Z,0.00
2022-09-26T01:59:49.913Z,0.00
2022-09-26T02:00:49.937Z,0.00
2022-09-26T02:01:49.885Z,0.00
2022-09-26T02:02:49.950Z,0.00
2022-09-26T02:03:49.898Z,0.00
2022-09-26T02:04:50.869Z,0.00
2022-09-26T02:05:49.845Z,0.00
2022-09-26T02:06:49.829Z,0.00
2022-09-26T02:07:49.838Z,0.00
2022-09-26T02:08:49.833Z,0.00
2022-09-26T02:09:49.842Z,0.00
2022-09-26T02:10:50.851Z,0.00
2022-09-26T02:11:49.846Z,0.00
2022-09-26T02:12:49.821Z,0.00
2022-09-26T02:13:49.835Z,0.00
2022-09-26T02:14:49.828Z,0.00
2022-09-26T02:15:49.822Z,0.00
2022-09-26T02:16:50.917Z,0.00
2022-09-26T02:17:49.802Z,0.00
2022-09-26T02:18:49.812Z,0.00
2022-09-26T02:19:49.799Z,0.00
2022-09-26T02:20:49.810Z,0.00
2022-09-26T02:21:49.786Z,0.00
2022-09-26T02:22:50.805Z,0.00
2022-09-26T02:23:49.792Z,0.00
2022-09-26T02:24:49.779Z,0.00
2022-09-26T02:25:49.785Z,0.00
2022-09-26T02:26:49.792Z,0.00
2022-09-26T02:27:49.785Z,0.00
2022-09-26T02:28:50.788Z,0.00
2022-09-26T02:29:49.777Z,0.00
2022-09-26T02:30:49.786Z,0.00
2022-09-26T02:31:49.853Z,0.00
2022-09-26T02:32:49.761Z,0.00
2022-09-26T02:33:49.762Z,0.00
2022-09-26T02:34:50.768Z,0.00
2022-09-26T02:35:49.756Z,0.00
2022-09-26T02:36:49.762Z,0.00
2022-09-26T02:37:49.750Z,0.00
2022-09-26T02:38:49.761Z,0.00
2022-09-26T02:39:49.775Z,0.00
2022-09-26T02:40:50.834Z,0.00
2022-09-26T02:41:49.738Z,0.00
2022-09-26T02:42:49.745Z,0.00
2022-09-26T02:43:49.742Z,0.00
2022-09-26T02:44:49.723Z,0.00
2022-09-26T02:45:49.778Z,0.00
2022-09-26T02:46:50.751Z,0.00
2022-09-26T02:47:49.732Z,0.00
2022-09-26T02:48:49.725Z,0.00
2022-09-26T02:49:49.715Z,0.00
2022-09-26T02:50:49.736Z,0.00
2022-09-26T02:51:49.722Z,0.00
2022-09-26T02:52:50.729Z,0.00
2022-09-26T02:53:49.706Z,0.00
2022-09-26T02:54:49.719Z,0.00
2022-09-26T02:55:49.693Z,0.00
2022-09-26T02:56:49.726Z,0.00
2022-09-26T02:57:49.689Z,0.00
2022-09-26T02:58:50.730Z,0.00
2022-09-26T02:59:49.683Z,0.00
2022-09-26T03:00:49.747Z,0.00
2022-09-26T03:01:49.690Z,0.00
2022-09-26T03:02:49.694Z,0.00
2022-09-26T03:03:49.729Z,0.00
2022-09-26T03:04:50.746Z,0.00
2022-09-26T03:05:49.680Z,0.00
2022-09-26T03:06:49.687Z,0.00
2022-09-26T03:07:49.679Z,0.00
2022-09-26T03:08:49.676Z,0.00
2022-09-26T03:09:49.657Z,0.00
2022-09-26T03:10:50.670Z,0.00
2022-09-26T03:11:49.655Z,0.00
2022-09-26T03:12:49.649Z,0.00
2022-09-26T03:13:49.652Z,0.00
2022-09-26T03:14:49.655Z,0.00
2022-09-26T03:15:49.640Z,0.00
2022-09-26T03:16:50.756Z,0.00
2022-09-26T03:17:49.648Z,0.00
2022-09-26T03:18:49.648Z,0.00
2022-09-26T03:19:49.624Z,0.00
2022-09-26T03:20:49.630Z,0.00
2022-09-26T03:21:49.639Z,0.00
2022-09-26T03:22:50.644Z,0.00
2022-09-26T03:23:49.629Z,0.00
2022-09-26T03:24:49.627Z,0.00
2022-09-26T03:25:49.616Z,0.00
2022-09-26T03:26:49.641Z,0.00
2022-09-26T03:27:49.630Z,0.00
2022-09-26T03:28:50.650Z,0.00
2022-09-26T03:29:49.602Z,0.00
2022-09-26T03:30:49.605Z,0.00
2022-09-26T03:31:49.657Z,0.00
2022-09-26T03:32:49.599Z,0.00
2022-09-26T03:33:49.599Z,0.00
2022-09-26T03:34:50.608Z,0.00
2022-09-26T03:35:49.612Z,0.00
2022-09-26T03:36:49.589Z,0.00
2022-09-26T03:37:49.592Z,0.00
2022-09-26T03:38:49.577Z,0.00
2022-09-26T03:39:49.569Z,0.00
2022-09-26T03:40:50.668Z,0.00
2022-09-26T03:41:49.580Z,0.00
2022-09-26T03:42:49.576Z,0.00
2022-09-26T03:43:49.553Z,0.00
2022-09-26T03:44:49.565Z,0.00
2022-09-26T03:45:49.607Z,0.00
2022-09-26T03:46:50.573Z,0.00
2022-09-26T03:47:49.547Z,0.00
2022-09-26T03:48:49.591Z,0.00
2022-09-26T03:49:49.557Z,0.00
2022-09-26T03:50:49.540Z,0.00
2022-09-26T03:51:49.568Z,0.00
2022-09-26T03:52:50.588Z,0.00
2022-09-26T03:53:49.518Z,0.00
2022-09-26T03:54:49.534Z,0.00
2022-09-26T03:55:49.525Z,0.00
2022-09-26T03:56:49.573Z,0.00
2022-09-26T03:57:49.520Z,0.00
2022-09-26T03:58:50.551Z,0.00
2022-09-26T03:59:49.531Z,0.00
2022-09-26T04:00:49.545Z,0.00
2022-09-26T04:01:49.563Z,0.00
2022-09-26T04:02:49.516Z,0.00
2022-09-26T04:03:50.893Z,0.00
2022-09-26T04:04:50.527Z,0.00
2022-09-26T04:05:49.508Z,0.00
2022-09-26T04:06:49.511Z,0.00
2022-09-26T04:07:49.494Z,0.00
2022-09-26T04:08:49.492Z,0.00
2022-09-26T04:09:49.491Z,0.00
2022-09-26T04:10:50.501Z,0.00
2022-09-26T04:11:49.483Z,0.00
2022-09-26T04:12:49.484Z,0.00
2022-09-26T04:13:52.387Z,0.00
2022-09-26T04:14:49.469Z,0.00
2022-09-26T04:15:49.458Z,0.00
2022-09-26T04:16:50.619Z,0.00
2022-09-26T04:17:49.456Z,0.00
2022-09-26T04:18:49.466Z,0.00
2022-09-26T04:19:49.463Z,0.00
2022-09-26T04:20:49.465Z,0.00
2022-09-26T04:21:49.490Z,0.00
2022-09-26T04:22:50.477Z,0.00
2022-09-26T04:23:49.484Z,0.00
2022-09-26T04:24:49.472Z,0.00
2022-09-26T04:25:49.440Z,0.00
2022-09-26T04:26:49.462Z,0.00
2022-09-26T04:27:49.453Z,0.00
2022-09-26T04:28:50.447Z,0.00
2022-09-26T04:29:49.431Z,4.00
2022-09-26T04:30:49.435Z,0.00
2022-09-26T04:31:49.478Z,4.00
2022-09-26T04:32:49.418Z,0.00
2022-09-26T04:33:49.440Z,4.00
2022-09-26T04:34:50.455Z,4.00
2022-09-26T04:35:49.449Z,4.00
2022-09-26T04:36:49.412Z,4.00
2022-09-26T04:37:49.411Z,4.00
2022-09-26T04:38:49.462Z,8.00
2022-09-26T04:39:49.408Z,8.00
2022-09-26T04:40:50.479Z,12.00
2022-09-26T04:41:49.393Z,12.00
2022-09-26T04:42:49.385Z,12.00
2022-09-26T04:43:49.392Z,16.00
2022-09-26T04:44:49.394Z,16.00
2022-09-26T04:45:49.423Z,20.00
2022-09-26T04:46:50.416Z,24.00
2022-09-26T04:47:49.377Z,24.00
2022-09-26T04:48:49.369Z,28.00
2022-09-26T04:49:49.367Z,28.00
2022-09-26T04:50:49.378Z,32.00
2022-09-26T04:51:49.368Z,32.00
2022-09-26T04:52:50.370Z,32.00
2022-09-26T04:53:49.363Z,36.00
2022-09-26T04:54:49.362Z,40.00
2022-09-26T04:55:49.362Z,48.00
2022-09-26T04:56:49.375Z,64.00
2022-09-26T04:57:49.363Z,76.00
2022-09-26T04:58:50.342Z,92.00
2022-09-26T04:59:49.348Z,108.00
2022-09-26T05:00:49.423Z,120.00
2022-09-26T05:01:49.386Z,128.00
2022-09-26T05:02:49.344Z,136.00
2022-09-26T05:03:49.327Z,148.00
2022-09-26T05:04:50.333Z,164.00
2022-09-26T05:05:49.334Z,184.00
2022-09-26T05:06:49.341Z,204.00
2022-09-26T05:07:49.325Z,236.00
2022-09-26T05:08:49.360Z,280.00
2022-09-26T05:09:49.317Z,328.00
2022-09-26T05:10:50.321Z,384.00
2022-09-26T05:11:49.306Z,444.00
2022-09-26T05:12:49.298Z,508.00
2022-09-26T05:13:53.377Z,576.00
2022-09-26T05:14:49.302Z,640.00
2022-09-26T05:15:49.311Z,708.00
2022-09-26T05:16:50.383Z,784.00
2022-09-26T05:17:49.315Z,856.00
2022-09-26T05:18:49.284Z,932.00
2022-09-26T05:19:49.279Z,1008.00
2022-09-26T05:20:49.268Z,1088.00
2022-09-26T05:21:49.344Z,1168.00
2022-09-26T05:22:50.281Z,1248.00
2022-09-26T05:23:49.263Z,1320.00
2022-09-26T05:24:49.269Z,1396.00
2022-09-26T05:25:49.265Z,1460.00
2022-09-26T05:26:49.258Z,1520.00
2022-09-26T05:27:49.252Z,1580.00
2022-09-26T05:28:50.247Z,1632.00
2022-09-26T05:29:49.257Z,1684.00
2022-09-26T05:30:49.234Z,1736.00
2022-09-26T05:31:49.322Z,1776.00
2022-09-26T05:32:49.252Z,1820.00
2022-09-26T05:33:49.222Z,1856.00
2022-09-26T05:34:50.234Z,1868.00
2022-09-26T05:35:49.235Z,1896.00
2022-09-26T05:36:49.241Z,1956.00
2022-09-26T05:37:49.223Z,2032.00
2022-09-26T05:38:49.226Z,2124.00
2022-09-26T05:39:49.226Z,2228.00
2022-09-26T05:40:50.263Z,2340.00
2022-09-26T05:41:49.203Z,2500.00
2022-09-26T05:42:49.213Z,2588.00
2022-09-26T05:43:49.206Z,2616.00
2022-09-26T05:44:49.202Z,2636.00
2022-09-26T05:45:49.214Z,2668.00
2022-09-26T05:46:50.273Z,2680.00
2022-09-26T05:47:49.190Z,2740.00
2022-09-26T05:48:49.208Z,2796.00
2022-09-26T05:49:49.184Z,2848.00
2022-09-26T05:50:49.173Z,2880.00
2022-09-26T05:51:49.179Z,2876.00
2022-09-26T05:52:50.252Z,2944.00
2022-09-26T05:53:49.230Z,2944.00
2022-09-26T05:54:49.215Z,2992.00
2022-09-26T05:55:49.167Z,3048.00
2022-09-26T05:56:49.172Z,3088.00
2022-09-26T05:57:49.153Z,3172.00
2022-09-26T05:58:50.225Z,3284.00
2022-09-26T05:59:49.164Z,3380.00
2022-09-26T06:00:49.204Z,3492.00
2022-09-26T06:01:49.238Z,3604.00
2022-09-26T06:02:49.174Z,3704.00
2022-09-26T06:03:49.139Z,3772.00
2022-09-26T06:04:50.159Z,3820.00
2022-09-26T06:05:49.143Z,3848.00
2022-09-26T06:06:49.148Z,3872.00
2022-09-26T06:07:49.157Z,3892.00
2022-09-26T06:08:49.160Z,3924.00
2022-09-26T06:09:49.126Z,3968.00
2022-09-26T06:10:50.132Z,4000.00
2022-09-26T06:11:49.146Z,4032.00
2022-09-26T06:12:51.157Z,4072.00
2022-09-26T06:13:49.151Z,4120.00
2022-09-26T06:14:49.125Z,4168.00
2022-09-26T06:15:49.106Z,4220.00
2022-09-26T06:16:50.205Z,4276.00
2022-09-26T06:17:49.135Z,4340.00
2022-09-26T06:18:49.130Z,4412.00
2022-09-26T06:19:49.124Z,4472.00
2022-09-26T06:20:49.142Z,4512.00
2022-09-26T06:21:49.108Z,4548.00
2022-09-26T06:22:50.111Z,4608.00
2022-09-26T06:23:49.117Z,4644.00
2022-09-26T06:24:49.091Z,4704.00
2022-09-26T06:25:49.103Z,4748.00
2022-09-26T06:26:49.130Z,4792.00
2022-09-26T06:27:49.084Z,4816.00
2022-09-26T06:28:50.167Z,4828.00
2022-09-26T06:29:49.082Z,4872.00
2022-09-26T06:30:49.095Z,4928.00
2022-09-26T06:31:49.213Z,4948.00
2022-09-26T06:32:49.076Z,4968.00
2022-09-26T06:33:49.076Z,4992.00
2022-09-26T06:34:50.065Z,5032.00
2022-09-26T06:35:49.074Z,5068.00
2022-09-26T06:36:49.061Z,5108.00
2022-09-26T06:37:49.074Z,5164.00
2022-09-26T06:38:49.087Z,5244.00
2022-09-26T06:39:49.072Z,5296.00
2022-09-26T06:40:50.148Z,5352.00
2022-09-26T06:41:49.069Z,5372.00
2022-09-26T06:42:49.036Z,5436.00
2022-09-26T06:43:49.102Z,5560.00
2022-09-26T06:44:49.055Z,5628.00
2022-09-26T06:45:49.035Z,5692.00
2022-09-26T06:46:50.102Z,5760.00
2022-09-26T06:47:49.043Z,5780.00
2022-09-26T06:48:49.042Z,5820.00
2022-09-26T06:49:49.031Z,5856.00
2022-09-26T06:50:49.026Z,5844.00
2022-09-26T06:51:49.034Z,5876.00
2022-09-26T06:52:50.045Z,5944.00
2022-09-26T06:53:49.012Z,5940.00
2022-09-26T06:54:49.032Z,5952.00
2022-09-26T06:55:49.082Z,5960.00
2022-09-26T06:56:49.039Z,6000.00
2022-09-26T06:57:49.011Z,6096.00
2022-09-26T06:58:50.072Z,6116.00
2022-09-26T06:59:49.013Z,6156.00
2022-09-26T07:00:49.128Z,6184.00
2022-09-26T07:01:49.174Z,6184.00
2022-09-26T07:02:49.015Z,6204.00
2022-09-26T07:03:49.090Z,6260.00
2022-09-26T07:04:49.990Z,6380.00
2022-09-26T07:05:49.006Z,6508.00
2022-09-26T07:06:48.984Z,6376.00
2022-09-26T07:07:48.990Z,6168.00
2022-09-26T07:09:01.986Z,6076.00
2022-09-26T07:09:49.016Z,6040.00
2022-09-26T07:10:50.000Z,6040.00
2022-09-26T07:12:13.722Z,6028.00
2022-09-26T07:12:49.006Z,6632.00
2022-09-26T07:13:48.981Z,6800.00
2022-09-26T07:14:53.436Z,6620.00
2022-09-26T07:15:49.015Z,6800.00
2022-09-26T07:16:49.974Z,7580.00
2022-09-26T07:17:48.960Z,9040.00
2022-09-26T07:18:48.952Z,10716.00
2022-09-26T07:19:48.949Z,11612.00
2022-09-26T07:20:51.161Z,9968.00
2022-09-26T07:21:48.977Z,7328.00
2022-09-26T07:22:50.004Z,7608.00
2022-09-26T07:23:48.964Z,15024.00
2022-09-26T07:24:49.030Z,24544.00
2022-09-26T07:25:48.970Z,22976.00
2022-09-26T07:26:48.972Z,30176.00
2022-09-26T07:27:48.973Z,34848.00
2022-09-26T07:28:54.513Z,53248.00
2022-09-26T07:29:49.007Z,65504.00
2022-09-26T07:30:48.944Z,59040.00
2022-09-26T07:31:49.025Z,54976.00
2022-09-26T07:32:48.974Z,67616.00
2022-09-26T07:33:48.963Z,68256.00
2022-09-26T07:34:49.931Z,64032.00
2022-09-26T07:35:48.944Z,65376.00
2022-09-26T07:36:48.947Z,67936.00
2022-09-26T07:37:48.949Z,66464.00
2022-09-26T07:38:48.949Z,62400.00
2022-09-26T07:39:52.637Z,84416.00
2022-09-26T07:40:50.031Z,85792.00
2022-09-26T07:41:48.989Z,84544.00
2022-09-26T07:43:09.297Z,86176.00
2022-09-26T07:45:48.990Z,89056.00
2022-09-26T07:46:50.079Z,92832.00
2022-09-26T07:47:49.061Z,95616.00
2022-09-26T07:48:49.011Z,94848.00
2022-09-26T07:49:49.031Z,92576.00
2022-09-26T07:50:49.032Z,94944.00
2022-09-26T07:51:49.055Z,94688.00
2022-09-26T07:52:50.072Z,93312.00
2022-09-26T07:53:49.061Z,92000.00
2022-09-26T07:54:49.103Z,90112.00
2022-09-26T07:55:49.081Z,93024.00
2022-09-26T07:56:49.091Z,93344.00
2022-09-26T07:57:49.124Z,95584.00
2022-09-26T07:58:50.130Z,92096.00
2022-09-26T07:59:49.129Z,94688.00
2022-09-26T08:00:49.134Z,55264.00
2022-09-26T08:01:49.238Z,94848.00
2022-09-26T08:02:49.215Z,25440.00
2022-09-26T08:03:49.185Z,66176.00
2022-09-26T08:04:50.233Z,87392.00
2022-09-26T08:05:49.204Z,81600.00
2022-09-26T08:06:49.245Z,72576.00
2022-09-26T08:07:49.274Z,68992.00
2022-09-26T08:08:49.260Z,70400.00
2022-09-26T08:09:49.269Z,61568.00
2022-09-26T08:10:50.286Z,64736.00
2022-09-26T08:11:49.360Z,61984.00
2022-09-26T08:12:49.293Z,62368.00
2022-09-26T08:13:49.324Z,62368.00
2022-09-26T08:14:49.347Z,62528.00
2022-09-26T08:15:49.369Z,55552.00
2022-09-26T08:16:50.355Z,44224.00
2022-09-26T08:17:49.369Z,43040.00
2022-09-26T08:18:49.363Z,24288.00
2022-09-26T08:19:49.396Z,20448.00
2022-09-26T08:20:49.446Z,20864.00
2022-09-26T08:21:49.425Z,20224.00
2022-09-26T08:22:50.440Z,16576.00
2022-09-26T08:23:49.450Z,17536.00
2022-09-26T08:24:49.444Z,16416.00
2022-09-26T08:25:49.463Z,15424.00
2022-09-26T08:26:49.474Z,14088.00
2022-09-26T08:27:49.499Z,11400.00
2022-09-26T08:28:50.519Z,12984.00
2022-09-26T08:29:49.539Z,12436.00
2022-09-26T08:30:49.514Z,11540.00
2022-09-26T08:31:49.589Z,10872.00
2022-09-26T08:32:49.536Z,10532.00
2022-09-26T08:33:49.543Z,10556.00
2022-09-26T08:34:50.577Z,9916.00
2022-09-26T08:35:49.562Z,8728.00
2022-09-26T08:36:49.567Z,5692.00
2022-09-26T08:37:49.607Z,4660.00
2022-09-26T08:38:49.597Z,10224.00
2022-09-26T08:39:49.592Z,10304.00
2022-09-26T08:40:50.677Z,9224.00
2022-09-26T08:41:49.609Z,5276.00
2022-09-26T08:42:49.618Z,4816.00
2022-09-26T08:43:49.637Z,8680.00
2022-09-26T08:44:49.622Z,8104.00
2022-09-26T08:45:49.669Z,7448.00
2022-09-26T08:46:50.702Z,6948.00
2022-09-26T08:47:49.656Z,5176.00
2022-09-26T08:48:49.646Z,3976.00
2022-09-26T08:49:49.686Z,6988.00
2022-09-26T08:50:49.663Z,6436.00
2022-09-26T08:51:49.669Z,6400.00
2022-09-26T08:52:50.710Z,6236.00
2022-09-26T08:53:49.683Z,6036.00
2022-09-26T08:54:49.698Z,5928.00
2022-09-26T08:55:49.690Z,5836.00
2022-09-26T08:56:49.744Z,5776.00
2022-09-26T08:57:49.707Z,6188.00
2022-09-26T08:58:50.720Z,6172.00
2022-09-26T08:59:49.693Z,5560.00
2022-09-26T09:00:49.722Z,5716.00
2022-09-26T09:01:49.806Z,5528.00
2022-09-26T09:02:49.724Z,3976.00
2022-09-26T09:03:49.722Z,4456.00
2022-09-26T09:04:53.962Z,4004.00
2022-09-26T09:05:49.730Z,5276.00
2022-09-26T09:06:49.710Z,5208.00
2022-09-26T09:07:49.734Z,3908.00
2022-09-26T09:08:49.721Z,4932.00
2022-09-26T09:09:49.719Z,4872.00
2022-09-26T09:10:50.758Z,5144.00
2022-09-26T09:11:51.164Z,5260.00
2022-09-26T09:12:49.746Z,5424.00
2022-09-26T09:13:49.752Z,5368.00
2022-09-26T09:15:07.586Z,4884.00
2022-09-26T09:15:49.771Z,4736.00
2022-09-26T09:16:50.757Z,4548.00
2022-09-26T09:17:49.746Z,4172.00
2022-09-26T09:18:49.798Z,4180.00
2022-09-26T09:19:49.759Z,4460.00
2022-09-26T09:20:49.736Z,4564.00
2022-09-26T09:21:49.764Z,4116.00
2022-09-26T09:22:50.768Z,3968.00
2022-09-26T09:23:49.753Z,3976.00
2022-09-26T09:24:49.769Z,4684.00
2022-09-26T09:25:49.824Z,5248.00
2022-09-26T09:27:53.661Z,5156.00
2022-09-26T09:28:50.766Z,4724.00
2022-09-26T09:29:49.869Z,4104.00
2022-09-26T09:30:49.772Z,3952.00
2022-09-26T09:31:49.763Z,3936.00
2022-09-26T09:32:49.781Z,3812.00
2022-09-26T09:33:49.764Z,3220.00
2022-09-26T09:34:53.824Z,3132.00
2022-09-26T09:35:49.845Z,4428.00
2022-09-26T09:36:49.776Z,4152.00
2022-09-26T09:37:49.789Z,4272.00
2022-09-26T09:38:49.841Z,3196.00
2022-09-26T09:39:49.793Z,3044.00
2022-09-26T09:40:50.892Z,3080.00
2022-09-26T09:41:49.770Z,2676.00
2022-09-26T09:42:49.773Z,3212.00
2022-09-26T09:43:49.781Z,4308.00
2022-09-26T09:44:49.763Z,3528.00
2022-09-26T09:45:49.771Z,4596.00
2022-09-26T09:46:50.928Z,4072.00
2022-09-26T09:47:49.772Z,4408.00
2022-09-26T09:48:49.825Z,4684.00
2022-09-26T09:49:49.784Z,4688.00
2022-09-26T09:50:49.783Z,4112.00
2022-09-26T09:51:49.794Z,3724.00
2022-09-26T09:52:50.798Z,4260.00
2022-09-26T09:53:49.815Z,4316.00
2022-09-26T09:54:49.786Z,3740.00
2022-09-26T09:55:49.770Z,3820.00
2022-09-26T09:56:49.783Z,4272.00
2022-09-26T09:57:49.802Z,4148.00
2022-09-26T09:58:50.793Z,3672.00
2022-09-26T09:59:49.794Z,3264.00
2022-09-26T10:00:51.330Z,3200.00
2022-09-26T10:01:49.815Z,3336.00
2022-09-26T10:02:49.853Z,3376.00
2022-09-26T10:03:49.816Z,2952.00
2022-09-26T10:04:50.804Z,3420.00
2022-09-26T10:05:49.791Z,3328.00
2022-09-26T10:06:49.807Z,3808.00
2022-09-26T10:07:49.834Z,3912.00
2022-09-26T10:08:49.804Z,4128.00
2022-09-26T10:09:49.812Z,4196.00
2022-09-26T10:10:50.815Z,3988.00
2022-09-26T10:11:52.570Z,3396.00
2022-09-26T10:12:49.788Z,3740.00
2022-09-26T10:13:49.809Z,4200.00
2022-09-26T10:14:49.792Z,4400.00
2022-09-26T10:15:49.814Z,4388.00
2022-09-26T10:16:50.807Z,4272.00
2022-09-26T10:18:12.771Z,3056.00
2022-09-26T10:18:49.795Z,2980.00
2022-09-26T10:19:49.808Z,3692.00
2022-09-26T10:20:49.793Z,4144.00
2022-09-26T10:21:49.878Z,4572.00
2022-09-26T10:22:50.907Z,4752.00
2022-09-26T10:23:49.813Z,5132.00
2022-09-26T10:24:49.790Z,4640.00
2022-09-26T10:25:49.798Z,5392.00
2022-09-26T10:26:49.787Z,5404.00
2022-09-26T10:27:49.808Z,5176.00
2022-09-26T10:28:50.808Z,4572.00
2022-09-26T10:29:49.801Z,4208.00
2022-09-26T10:30:49.840Z,4416.00
2022-09-26T10:31:49.855Z,3920.00
2022-09-26T10:32:52.884Z,4104.00
2022-09-26T10:33:49.813Z,4452.00
2022-09-26T10:34:50.846Z,4252.00
2022-09-26T10:35:49.798Z,4104.00
2022-09-26T10:36:49.796Z,4032.00
2022-09-26T10:37:49.801Z,3892.00
2022-09-26T10:38:49.806Z,3592.00
2022-09-26T10:39:49.813Z,3448.00
2022-09-26T10:40:50.852Z,3680.00
2022-09-26T10:41:49.796Z,4044.00
2022-09-26T10:42:49.807Z,4332.00
2022-09-26T10:43:49.803Z,4652.00
2022-09-26T10:44:49.797Z,4856.00
2022-09-26T10:45:49.798Z,5036.00
2022-09-26T10:46:50.884Z,5068.00
2022-09-26T10:47:49.797Z,4984.00
2022-09-26T10:48:49.865Z,4892.00
2022-09-26T10:49:49.806Z,4736.00
2022-09-26T10:50:49.816Z,4756.00
2022-09-26T10:51:49.813Z,4848.00
2022-09-26T10:52:50.816Z,4672.00
2022-09-26T10:53:49.792Z,4352.00
2022-09-26T10:54:49.802Z,4232.00
2022-09-26T10:55:49.797Z,4132.00
2022-09-26T10:56:49.823Z,3800.00
2022-09-26T10:57:49.801Z,3660.00
2022-09-26T10:58:50.823Z,3488.00
2022-09-26T10:59:49.807Z,3264.00
2022-09-26T11:00:49.816Z,3024.00
2022-09-26T11:01:49.874Z,2780.00
2022-09-26T11:02:49.816Z,2484.00
2022-09-26T11:03:50.016Z,2532.00
2022-09-26T11:04:50.821Z,2508.00
2022-09-26T11:05:49.819Z,2444.00
2022-09-26T11:06:49.802Z,2280.00
2022-09-26T11:07:49.795Z,1988.00
2022-09-26T11:08:49.805Z,1856.00
2022-09-26T11:09:49.810Z,1936.00
2022-09-26T11:10:50.814Z,2144.00
2022-09-26T11:11:49.803Z,2252.00
2022-09-26T11:12:49.802Z,2248.00
2022-09-26T11:13:49.792Z,2284.00
2022-09-26T11:14:49.814Z,2536.00
2022-09-26T11:15:49.856Z,2924.00
2022-09-26T11:16:50.816Z,3200.00
2022-09-26T11:17:49.800Z,3308.00
2022-09-26T11:18:49.807Z,3112.00
2022-09-26T11:19:54.518Z,2852.00
2022-09-26T11:20:49.812Z,2368.00
2022-09-26T11:21:49.811Z,2412.00
2022-09-26T11:22:50.815Z,2560.00
2022-09-26T11:23:49.790Z,2568.00
2022-09-26T11:24:49.805Z,2696.00
2022-09-26T11:25:52.324Z,2916.00
2022-09-26T11:27:10.807Z,2928.00
2022-09-26T11:29:12.497Z,2724.00
2022-09-26T11:31:36.634Z,3056.00
2022-09-26T11:34:00.475Z,3952.00
2022-09-26T11:36:45.503Z,3288.00
2022-09-26T11:38:28.476Z,3060.00
2022-09-26T11:39:28.479Z,3180.00
2022-09-26T11:41:32.474Z,3580.00
2022-09-26T11:42:32.444Z,3696.00
2022-09-26T11:44:25.401Z,4280.00
2022-09-26T11:45:25.361Z,3980.00
2022-09-26T11:47:29.405Z,3168.00
2022-09-26T11:48:29.373Z,3328.00
2022-09-26T11:50:33.380Z,3412.00
2022-09-26T11:51:33.334Z,3408.00
2022-09-26T11:53:37.357Z,3672.00
2022-09-26T11:54:37.331Z,3628.00
2022-09-26T11:56:41.344Z,3276.00
2022-09-26T11:57:41.340Z,3088.00
2022-09-26T11:59:45.367Z,2676.00
2022-09-26T12:00:45.324Z,2576.00
2022-09-26T12:02:49.467Z,2292.00
2022-09-26T12:03:49.424Z,2152.00
2022-09-26T12:05:53.366Z,2056.00
2022-09-26T12:06:53.333Z,2144.00
2022-09-26T12:08:57.316Z,2496.00
2022-09-26T12:09:57.311Z,2688.00
2022-09-26T12:12:01.337Z,3084.00
2022-09-26T12:13:01.298Z,3420.00
2022-09-26T12:14:54.221Z,3696.00
2022-09-26T12:15:54.240Z,3956.00
2022-09-26T12:17:58.251Z,3960.00
2022-09-26T12:18:58.216Z,4060.00
2022-09-26T12:21:02.190Z,4540.00
2022-09-26T12:22:02.201Z,4396.00
2022-09-26T12:24:06.313Z,4116.00
2022-09-26T12:25:06.205Z,3920.00
2022-09-26T12:27:10.702Z,3500.00
2022-09-26T12:28:10.726Z,2624.00
2022-09-26T12:29:10.690Z,2476.00
2022-09-26T12:30:10.702Z,2176.00
2022-09-26T12:31:10.747Z,1888.00
2022-09-26T12:32:10.692Z,1724.00
2022-09-26T12:33:10.706Z,1580.00
2022-09-26T12:34:10.751Z,1568.00
2022-09-26T12:35:10.726Z,1556.00
2022-09-26T12:36:10.689Z,1632.00
2022-09-26T12:37:10.699Z,1836.00
2022-09-26T12:38:10.691Z,2264.00
2022-09-26T12:39:10.701Z,2728.00
2022-09-26T12:40:10.742Z,3212.00
2022-09-26T12:41:10.687Z,3420.00
2022-09-26T12:42:10.686Z,3552.00
2022-09-26T12:43:10.734Z,3616.00
2022-09-26T12:44:10.693Z,3636.00
2022-09-26T12:45:10.683Z,3664.00
2022-09-26T12:46:10.738Z,3680.00
2022-09-26T12:47:10.698Z,3580.00
2022-09-26T12:48:10.701Z,3596.00
2022-09-26T12:49:10.735Z,3572.00
2022-09-26T12:50:10.726Z,3496.00
2022-09-26T12:51:10.700Z,3340.00
2022-09-26T12:52:10.714Z,3196.00
2022-09-26T12:53:10.725Z,3088.00
2022-09-26T12:54:10.700Z,3040.00
2022-09-26T12:55:10.703Z,2912.00
2022-09-26T12:56:10.680Z,2840.00
2022-09-26T12:57:10.686Z,2780.00